Time;durP1;ratioP1;P1;durP2;ratioP2;P2;SDS_P1;SDS_P2;PMS_P1;PMS_P2;Temp;Humidity;BMP_temperature;BMP_pressure;BME280_temperature;BME280_humidity;BME280_pressure;Samples;Min_cycle;Max_cycle;Signal;HPM_P1;HPM_P2
2022/06/21 00:00:30;;;;;;;3.30;2.38;;;;;;;13.12;61.86;100745.34;5043771;28;20027;-21
2022/06/21 00:03:05;;;;;;;3.13;2.83;;;;;;;13.14;61.46;100746.16;5041250;28;20493;-22
2022/06/21 00:05:34;;;;;;;2.97;2.50;;;;;;;13.10;61.37;100739.19;5042380;28;20082;-22
2022/06/21 00:08:04;;;;;;;2.55;2.38;;;;;;;13.05;61.46;100735.75;5041228;28;20109;-22
2022/06/21 00:10:34;;;;;;;2.40;2.25;;;;;;;13.02;61.59;100738.44;5045448;28;20024;-21
2022/06/21 00:13:19;;;;;;;2.30;2.10;;;;;;;13.01;61.65;100739.34;5046704;28;20027;-21
2022/06/21 00:15:47;;;;;;;2.58;2.35;;;;;;;12.94;61.53;100738.59;5067318;28;20028;-22
2022/06/21 00:18:16;;;;;;;2.95;2.38;;;;;;;12.90;61.63;100748.34;5068450;28;20029;-22
2022/06/21 00:20:41;;;;;;;2.95;2.60;;;;;;;12.87;61.46;100742.25;5024260;28;20572;-22
2022/06/21 00:23:12;;;;;;;6.57;2.53;;;;;;;12.84;61.58;100748.47;5041632;28;20024;-22
2022/06/21 00:25:38;;;;;;;;;;;;;;;12.81;61.83;100749.38;5064733;28;20032;-22
2022/06/21 00:28:03;;;;;;;7.60;2.80;;;;;;;12.79;61.69;100750.31;5062027;28;19916;-22
2022/06/21 00:30:29;;;;;;;2.55;2.30;;;;;;;12.77;61.91;100754.78;5065107;28;20293;-22
2022/06/21 00:32:55;;;;;;;3.67;2.47;;;;;;;12.73;61.87;100761.88;5063961;28;20013;-22
2022/06/21 00:35:22;;;;;;;2.42;2.22;;;;;;;12.68;61.88;100769.03;5031825;28;20029;-22
2022/06/21 00:37:48;;;;;;;2.90;2.70;;;;;;;12.66;62.01;100763.75;5065840;28;20081;-22
2022/06/21 00:40:25;;;;;;;2.90;2.63;;;;;;;12.61;61.70;100751.50;5045453;28;20028;-22
2022/06/21 00:42:55;;;;;;;3.25;2.63;;;;;;;12.61;61.97;100751.50;5056904;28;20092;-22
2022/06/21 00:45:25;;;;;;;3.08;2.53;;;;;;;12.60;61.84;100749.78;5047496;28;20041;-22
2022/06/21 00:48:01;;;;;;;2.80;2.60;;;;;;;12.57;61.86;100755.97;5058434;28;20085;-22
2022/06/21 00:50:26;;;;;;;2.80;2.60;;;;;;;12.58;61.91;100758.59;5047581;28;20398;-22
2022/06/21 00:53:26;;;;;;;2.70;2.50;;;;;;;12.56;62.13;100754.22;5059487;28;20039;-23
2022/06/21 00:56:45;;;;;;;2.87;2.53;;;;;;;12.53;61.81;100754.25;5053188;28;20700;-22
2022/06/21 00:59:31;;;;;;;3.95;2.38;;;;;;;12.48;62.07;100754.34;5015837;28;20037;-22
2022/06/21 01:01:59;;;;;;;3.42;3.13;;;;;;;12.44;61.91;100745.56;5062726;28;20017;-22
2022/06/21 01:04:33;;;;;;;2.97;2.65;;;;;;;12.42;61.94;100755.31;5066194;28;20072;-22
2022/06/21 01:07:00;;;;;;;2.85;2.40;;;;;;;12.38;62.17;100748.34;5060548;28;20180;-22
2022/06/21 01:10:14;;;;;;;3.95;2.65;;;;;;;12.40;61.76;100754.47;5060561;28;20033;-22
2022/06/21 01:12:58;;;;;;;4.07;3.15;;;;;;;12.37;61.76;100754.50;5038296;28;20036;-22
2022/06/21 01:15:29;;;;;;;3.55;2.42;;;;;;;12.30;61.89;100748.44;5053944;28;20016;-22
2022/06/21 01:17:58;;;;;;;2.85;2.65;;;;;;;12.26;62.31;100754.69;5037862;28;20031;-22
2022/06/21 01:20:25;;;;;;;2.65;2.40;;;;;;;12.23;62.34;100761.75;5054592;28;20383;-22
2022/06/21 01:23:23;;;;;;;2.70;2.50;;;;;;;12.18;62.37;100757.41;5045074;28;20037;-22
2022/06/21 01:25:57;;;;;;;2.78;2.58;;;;;;;12.15;62.39;100762.78;5059823;28;20123;-22
2022/06/21 01:28:22;;;;;;;3.78;2.90;;;;;;;12.12;62.34;100768.09;5061931;28;20504;-22
2022/06/21 01:30:54;;;;;;;3.00;2.70;;;;;;;12.12;62.10;100770.75;5062009;28;20040;-22
2022/06/21 01:33:28;;;;;;;2.95;2.75;;;;;;;12.10;62.33;100769.88;5040568;28;20044;-22
2022/06/21 01:35:56;;;;;;;6.13;2.78;;;;;;;12.08;62.43;100774.31;5060501;28;20079;-22
2022/06/21 01:38:32;;;;;;;3.33;2.90;;;;;;;12.04;62.15;100777.88;5044549;28;20427;-22
2022/06/21 01:41:06;;;;;;;4.07;3.08;;;;;;;12.08;62.04;100776.09;5066079;28;20491;-22
2022/06/21 01:43:32;;;;;;;3.53;2.80;;;;;;;12.06;62.25;100784.03;5064574;28;20028;-22
2022/06/21 01:46:02;;;;;;;3.22;2.80;;;;;;;12.07;61.84;100785.78;5047740;28;20100;-22
2022/06/21 01:48:32;;;;;;;3.20;2.92;;;;;;;12.05;62.37;100783.16;5060587;28;20119;-22
2022/06/21 01:51:02;;;;;;;3.15;2.50;;;;;;;12.00;62.20;100782.31;5066942;28;20035;-22
2022/06/21 01:53:28;;;;;;;3.83;2.83;;;;;;;11.98;62.58;100783.25;5040339;28;20610;-22
2022/06/21 01:56:00;;;;;;;5.03;3.35;;;;;;;11.98;62.42;100796.44;5045180;28;20287;-22
2022/06/21 01:58:29;;;;;;;3.47;2.97;;;;;;;11.99;62.41;100774.41;5045846;28;20028;-22
2022/06/21 02:01:19;;;;;;;2.95;2.72;;;;;;;11.96;62.58;100775.31;5045455;28;20044;-22
2022/06/21 02:03:45;;;;;;;5.78;2.83;;;;;;;11.92;62.19;100774.50;5061565;28;20077;-22
2022/06/21 02:06:12;;;;;;;3.90;3.22;;;;;;;11.93;62.13;100776.25;5066090;28;20480;-22
2022/06/21 02:08:47;;;;;;;4.32;3.05;;;;;;;11.94;62.22;100772.69;5063131;28;20082;-22
2022/06/21 02:11:28;;;;;;;6.10;3.28;;;;;;;11.93;62.27;100778.00;5066958;28;20020;-22
2022/06/21 02:16:43;;;;;;;4.65;3.10;;;;;;;11.90;62.49;100772.75;5047064;28;20066;-21
2022/06/21 02:19:22;;;;;;;5.05;2.88;;;;;;;11.87;62.31;100760.47;5059516;28;20059;-22
2022/06/21 02:21:47;;;;;;;5.10;2.97;;;;;;;11.81;62.49;100773.78;5040482;28;20121;-22
2022/06/21 02:24:14;;;;;;;3.53;3.22;;;;;;;11.80;62.76;100775.53;5032161;28;20107;-22
2022/06/21 02:26:39;;;;;;;3.67;3.33;;;;;;;11.77;62.69;100778.19;5062514;28;20035;-22
2022/06/21 02:29:05;;;;;;;4.10;2.80;;;;;;;11.80;62.41;100777.28;5044407;28;20036;-22
2022/06/21 02:31:31;;;;;;;3.47;3.13;;;;;;;11.80;62.50;100787.84;5060420;28;20035;-22
2022/06/21 02:34:00;;;;;;;4.90;2.50;;;;;;;11.75;62.48;100777.38;5065075;28;20020;-22
2022/06/21 02:36:31;;;;;;;4.20;3.13;;;;;;;11.74;62.63;100791.44;5043519;28;20469;-22
2022/06/21 02:38:59;;;;;;;6.82;3.03;;;;;;;11.68;62.46;100781.81;5046452;28;20058;-22
2022/06/21 02:41:29;;;;;;;3.60;3.22;;;;;;;11.71;62.55;100790.63;5062573;28;20107;-22
2022/06/21 02:43:58;;;;;;;3.03;2.83;;;;;;;11.67;62.75;100785.38;5037230;28;20439;-22
2022/06/21 02:46:32;;;;;;;3.67;3.30;;;;;;;11.62;62.71;100786.31;5044400;28;20112;-21
2022/06/21 02:49:06;;;;;;;3.05;2.80;;;;;;;11.59;62.75;100781.94;5017445;28;20020;-22
2022/06/21 02:52:21;;;;;;;3.38;2.80;;;;;;;11.57;62.83;100791.63;5066296;28;20430;-21
2022/06/21 02:54:56;;;;;;;5.28;3.03;;;;;;;11.53;62.86;100800.50;5053819;28;20044;-22
2022/06/21 02:57:33;;;;;;;3.10;2.90;;;;;;;11.49;62.75;100801.41;5044978;28;20054;-22
2022/06/21 02:59:59;;;;;;;4.72;2.55;;;;;;;11.42;62.81;100795.34;5039057;28;20415;-22
2022/06/21 03:02:27;;;;;;;2.83;2.63;;;;;;;11.45;62.86;100794.44;5041970;28;20507;-22
2022/06/21 03:04:59;;;;;;;6.38;3.00;;;;;;;11.47;62.50;100787.38;5031686;28;20052;-22
2022/06/21 03:07:27;;;;;;;5.85;3.80;;;;;;;11.45;62.64;100778.56;5046357;28;20033;-22
2022/06/21 03:09:53;;;;;;;3.25;2.95;;;;;;;11.45;62.98;100774.19;5066905;28;20654;-22
2022/06/21 03:12:21;;;;;;;3.15;2.85;;;;;;;11.45;62.84;100779.47;5043135;28;20032;-22
2022/06/21 03:14:48;;;;;;;5.47;3.33;;;;;;;11.40;62.74;100779.50;5065026;28;20031;-21
2022/06/21 03:17:16;;;;;;;5.10;3.38;;;;;;;11.46;63.20;100790.88;5062840;28;20247;-22
2022/06/21 03:19:54;;;;;;;3.95;3.22;;;;;;;11.47;63.00;100782.09;5051934;28;20016;-22
2022/06/21 03:22:22;;;;;;;8.35;3.70;;;;;;;11.45;62.98;100781.22;5049348;28;20020;-22
2022/06/21 03:24:52;;;;;;;3.65;3.17;;;;;;;11.42;62.98;100796.22;5034557;28;20020;-21
2022/06/21 03:27:34;;;;;;;5.90;3.08;;;;;;;11.39;63.04;100800.66;5045557;28;20020;-21
2022/06/21 03:30:00;;;;;;;6.13;3.08;;;;;;;11.38;63.35;100798.91;5030688;28;20031;-22
2022/06/21 03:32:27;;;;;;;4.93;3.63;;;;;;;11.38;63.10;100793.63;5064033;28;20104;-22
2022/06/21 03:34:53;;;;;;;3.65;3.03;;;;;;;11.38;63.12;100793.63;5043081;28;20071;-22
2022/06/21 03:37:19;;;;;;;4.50;3.28;;;;;;;11.34;63.12;100792.75;5055855;28;20551;-21
2022/06/21 03:42:32;;;;;;;5.20;3.30;;;;;;;11.32;63.40;100794.56;5061647;28;20117;-22
2022/06/21 03:45:08;;;;;;;4.22;3.25;;;;;;;11.32;63.03;100799.84;5061567;28;20098;-21
2022/06/21 03:47:37;;;;;;;4.85;3.92;;;;;;;11.31;63.09;100792.81;5049787;28;20021;-22
2022/06/21 03:50:12;;;;;;;3.60;3.25;;;;;;;11.31;63.16;100782.25;5044457;28;20047;-21
2022/06/21 03:53:01;;;;;;;3.22;2.97;;;;;;;11.29;63.24;100774.34;5044000;28;20033;-22
2022/06/21 03:55:45;;;;;;;3.80;3.20;;;;;;;11.27;63.11;100781.41;5026998;28;20028;-22
2022/06/21 03:58:21;;;;;;;5.10;3.38;;;;;;;11.29;63.42;100789.31;5063756;28;20032;-22
2022/06/21 04:00:55;;;;;;;3.60;2.83;;;;;;;11.32;63.38;100789.28;5042495;28;20032;-22
2022/06/21 04:03:25;;;;;;;5.20;3.22;;;;;;;11.32;63.44;100769.91;5045642;28;20111;-22
2022/06/21 04:06:01;;;;;;;5.90;3.33;;;;;;;11.29;63.10;100781.38;5068809;28;20445;-22
2022/06/21 04:08:36;;;;;;;5.75;2.97;;;;;;;11.31;63.28;100782.25;5064960;28;20043;-22
2022/06/21 04:11:09;;;;;;;4.82;3.30;;;;;;;11.32;63.32;100791.91;5061383;28;20078;-22
2022/06/21 04:13:56;;;;;;;4.78;3.30;;;;;;;11.33;63.37;100798.94;5064158;28;20037;-22
2022/06/21 04:16:34;;;;;;;4.82;3.22;;;;;;;11.36;63.46;100791.00;5050577;28;20531;-22
2022/06/21 04:19:12;;;;;;;5.13;3.38;;;;;;;11.40;63.65;100791.81;5061734;28;20480;-22
2022/06/21 04:21:53;;;;;;;3.00;2.80;;;;;;;11.45;63.29;100794.44;5029327;28;20035;-22
2022/06/21 04:24:27;;;;;;;4.43;3.20;;;;;;;11.48;63.28;100795.28;5062432;28;20495;-22
2022/06/21 04:27:01;;;;;;;4.93;3.38;;;;;;;11.58;62.89;100787.25;5042579;28;20121;-22
2022/06/21 04:29:38;;;;;;;3.33;2.75;;;;;;;11.58;63.28;100792.53;5050815;28;20110;-22
2022/06/21 04:32:10;;;;;;;4.80;3.55;;;;;;;11.60;63.29;100799.53;5044592;28;20074;-22
2022/06/21 04:34:39;;;;;;;3.50;3.15;;;;;;;11.61;63.50;100796.00;5041444;28;20028;-21
2022/06/21 04:37:11;;;;;;;5.35;3.42;;;;;;;11.64;63.60;100810.97;5041483;28;20090;-22
2022/06/21 04:39:38;;;;;;;;;;;;;;;11.67;64.52;100809.16;5040667;28;20029;-21
2022/06/21 04:42:27;;;;;;;6.88;3.63;;;;;;;11.70;65.13;100807.38;5042567;28;19912;-21
2022/06/21 04:45:14;;;;;;;6.10;3.70;;;;;;;11.67;66.25;100811.78;5034398;28;20033;-22
2022/06/21 04:48:06;;;;;;;5.22;4.15;;;;;;;11.71;66.46;100812.66;5048963;28;20059;-22
2022/06/21 04:50:44;;;;;;;7.38;4.30;;;;;;;11.78;66.50;100802.88;5061767;28;20093;-22
2022/06/21 04:53:34;;;;;;;7.15;4.57;;;;;;;11.86;66.33;100810.69;5057181;28;20432;-22
2022/06/21 04:56:21;;;;;;;5.10;4.18;;;;;;;11.92;66.11;100810.63;5042626;28;20128;-22
2022/06/21 04:58:48;;;;;;;6.28;4.22;;;;;;;12.03;66.60;100818.41;5044155;28;20112;-21
2022/06/21 05:04:01;;;;;;;6.57;4.60;;;;;;;12.13;66.29;100809.50;5047288;28;20067;-22
2022/06/21 05:06:27;;;;;;;4.25;3.85;;;;;;;12.19;66.28;100809.44;5049106;28;20024;-21
2022/06/21 05:08:53;;;;;;;4.30;3.90;;;;;;;12.26;65.79;100810.22;5032607;28;20025;-22
2022/06/21 05:11:20;;;;;;;5.53;3.75;;;;;;;12.34;65.69;100804.78;5043995;28;20021;-22
2022/06/21 05:13:51;;;;;;;5.65;3.80;;;;;;;12.39;65.68;100795.03;5044679;28;20027;-22
2022/06/21 05:16:30;;;;;;;;;;;;;;;12.48;66.17;100798.44;5032448;28;20028;-22
2022/06/21 05:18:56;;;;;;;4.93;3.88;;;;;;;12.55;66.73;100806.28;5061594;28;20275;-22
2022/06/21 05:21:35;;;;;;;4.03;3.65;;;;;;;12.63;66.51;100808.78;5066230;28;20029;-22
2022/06/21 05:24:01;;;;;;;3.92;3.58;;;;;;;12.70;66.24;100815.75;5061122;28;20025;-21
2022/06/21 05:26:37;;;;;;;7.80;4.00;;;;;;;12.80;67.08;100828.81;5023776;28;20077;-22
2022/06/21 05:29:12;;;;;;;5.75;3.85;;;;;;;12.88;67.07;100829.59;5029462;28;20054;-22
2022/06/21 05:31:40;;;;;;;4.22;3.88;;;;;;;12.98;67.22;100832.06;5044276;28;20032;-22
2022/06/21 05:34:17;;;;;;;7.18;3.97;;;;;;;13.05;67.02;100828.41;5049914;28;20383;-22
2022/06/21 05:37:02;;;;;;;4.10;3.70;;;;;;;13.13;67.35;100834.47;5059947;28;20510;-22
2022/06/21 05:39:48;;;;;;;4.35;3.50;;;;;;;13.21;67.43;100844.94;5016266;28;20617;-22
2022/06/21 05:42:16;;;;;;;8.90;4.85;;;;;;;13.31;67.30;100848.28;5061013;28;20088;-22
2022/06/21 05:44:48;;;;;;;5.13;3.90;;;;;;;13.38;67.60;100846.41;5040129;28;20395;-22
2022/06/21 05:47:21;;;;;;;4.88;4.47;;;;;;;13.41;68.42;100844.56;5041432;28;20472;-22
2022/06/21 05:49:47;;;;;;;8.70;3.95;;;;;;;13.46;68.02;100840.06;5062912;28;20036;-22
2022/06/21 05:52:26;;;;;;;6.88;4.03;;;;;;;13.52;67.46;100849.69;5067579;28;20073;-22
2022/06/21 05:55:06;;;;;;;5.55;3.97;;;;;;;13.56;67.84;100842.56;5058371;28;20024;-22
2022/06/21 05:57:39;;;;;;;6.70;4.00;;;;;;;13.62;67.47;100844.22;5036646;28;20027;-23
2022/06/21 06:00:06;;;;;;;6.68;3.85;;;;;;;13.66;66.92;100854.75;5043760;28;20028;-22
2022/06/21 06:02:41;;;;;;;5.78;3.95;;;;;;;13.70;67.27;100855.53;5053919;28;20448;-22
2022/06/21 06:05:12;;;;;;;3.90;3.60;;;;;;;13.76;66.94;100851.91;5068071;28;20031;-22
2022/06/21 06:07:46;;;;;;;5.30;4.13;;;;;;;13.81;67.02;100858.00;5051423;28;20062;-22
2022/06/21 06:10:12;;;;;;;4.68;3.55;;;;;;;13.85;66.43;100857.03;5049189;28;20027;-22
2022/06/21 06:12:40;;;;;;;3.92;3.58;;;;;;;13.88;66.44;100856.97;5066512;28;20077;-21
2022/06/21 06:15:22;;;;;;;6.18;3.80;;;;;;;13.93;66.07;100857.75;5050264;28;20020;-22
2022/06/21 06:18:02;;;;;;;5.57;4.10;;;;;;;13.98;66.30;100850.56;5046603;28;20096;-21
2022/06/21 06:20:40;;;;;;;4.75;4.30;;;;;;;14.04;66.54;100846.06;5047209;28;20017;-22
2022/06/21 06:23:14;;;;;;;6.60;4.53;;;;;;;14.09;66.62;100841.53;5057885;28;20119;-21
2022/06/21 06:26:12;;;;;;;6.15;3.95;;;;;;;14.14;66.63;100842.28;5053005;28;20488;-22
2022/06/21 06:29:08;;;;;;;7.13;4.30;;;;;;;14.22;66.18;100847.44;5062488;28;20063;-22
2022/06/21 06:31:55;;;;;;;4.07;3.58;;;;;;;14.29;66.25;100842.88;5050941;28;20127;-22
2022/06/21 06:34:23;;;;;;;6.47;3.95;;;;;;;14.36;65.72;100833.88;5036266;28;20021;-23
2022/06/21 06:36:55;;;;;;;4.55;4.10;;;;;;;14.42;65.13;100832.84;5051298;28;20081;-22
2022/06/21 06:39:23;;;;;;;4.22;3.78;;;;;;;14.47;65.77;100838.91;5048984;28;20103;-23
2022/06/21 06:42:05;;;;;;;6.25;3.88;;;;;;;14.53;64.95;100832.59;5060562;28;20021;-23
2022/06/21 06:44:49;;;;;;;6.93;4.13;;;;;;;14.59;65.55;100841.31;5055527;28;20021;-23
2022/06/21 06:47:38;;;;;;;5.53;4.20;;;;;;;14.69;65.99;100838.44;5070842;28;20074;-23
2022/06/21 06:50:04;;;;;;;5.80;4.20;;;;;;;14.81;65.40;100843.47;5059693;28;20480;-22
2022/06/21 06:52:34;;;;;;;4.47;3.60;;;;;;;14.93;65.17;100852.94;5062671;28;20035;-22
2022/06/21 06:55:34;;;;;;;6.28;4.22;;;;;;;15.01;64.78;100850.09;5042958;28;20017;-22
2022/06/21 06:58:03;;;;;;;6.57;4.07;;;;;;;15.13;65.00;100851.56;5042749;28;20062;-22
2022/06/21 07:00:39;;;;;;;6.38;4.45;;;;;;;15.18;64.55;100857.66;5042679;28;20024;-22
2022/06/21 07:03:17;;;;;;;6.15;3.95;;;;;;;15.25;64.05;100853.88;5033810;28;20514;-22
2022/06/21 07:05:57;;;;;;;6.95;4.35;;;;;;;15.30;64.12;100842.31;5063630;28;20107;-22
2022/06/21 07:08:43;;;;;;;6.00;4.57;;;;;;;15.40;64.14;100859.72;5044515;28;20028;-22
2022/06/21 07:11:29;;;;;;;6.03;3.70;;;;;;;15.57;64.11;100864.59;5041927;28;20024;-22
2022/06/21 07:13:57;;;;;;;4.18;3.67;;;;;;;15.66;63.93;100866.13;5059081;28;20545;-22
2022/06/21 07:16:24;;;;;;;4.57;3.50;;;;;;;15.72;64.06;100865.09;5044314;28;20085;-22
2022/06/21 07:18:52;;;;;;;6.25;3.85;;;;;;;15.74;63.59;100872.09;5061645;28;20021;-22
2022/06/21 07:21:18;;;;;;;6.53;3.85;;;;;;;15.77;63.21;100872.03;5047617;28;20024;-22
2022/06/21 07:23:44;;;;;;;4.32;3.80;;;;;;;15.85;64.05;100876.25;5046957;28;20016;-22
2022/06/21 07:26:38;;;;;;;5.47;3.97;;;;;;;15.93;63.69;100874.25;5061278;28;20035;-22
2022/06/21 07:29:17;;;;;;;3.90;3.50;;;;;;;16.00;63.36;100878.53;5063557;28;20051;-22
2022/06/21 07:31:46;;;;;;;3.58;3.28;;;;;;;16.07;62.97;100873.03;5058374;28;20107;-22
2022/06/21 07:34:26;;;;;;;5.07;3.50;;;;;;;16.12;62.44;100868.44;5043642;28;20055;-22
2022/06/21 07:36:57;;;;;;;5.77;3.87;;;;;;;16.21;62.20;100869.97;5056957;28;20029;-22
2022/06/21 07:39:32;;;;;;;4.43;3.53;;;;;;;16.34;62.75;100873.97;5027329;28;20021;-22
2022/06/21 07:42:03;;;;;;;4.07;3.10;;;;;;;16.47;62.86;100869.16;5044118;28;20027;-22
2022/06/21 07:44:38;;;;;;;5.40;3.47;;;;;;;16.51;62.40;100865.47;5035102;28;20017;-22
2022/06/21 07:47:06;;;;;;;4.80;3.33;;;;;;;16.58;61.78;100868.84;5062224;28;20035;-22
2022/06/21 07:49:41;;;;;;;4.00;2.95;;;;;;;16.74;62.47;100865.69;5041198;28;20060;-22
2022/06/21 07:52:30;;;;;;;7.13;3.30;;;;;;;16.90;62.25;100869.59;5059468;28;20032;-22
2022/06/21 07:54:59;;;;;;;4.90;3.42;;;;;;;16.98;62.15;100856.03;5035879;28;20056;-22
2022/06/21 07:58:05;;;;;;;3.15;2.83;;;;;;;17.01;61.16;100861.25;5003032;28;20021;-22
2022/06/21 08:06:41;;;;;;;5.05;3.00;;;;;;;17.10;61.35;100857.44;4967325;28;20479;-22
2022/06/21 08:08:51;;;;;;;4.25;3.00;;;;;;;17.53;61.93;100862.22;5026619;28;20039;-22
2022/06/21 08:11:26;;;;;;;4.85;3.00;;;;;;;17.70;61.76;100861.59;5039611;28;20021;-22
2022/06/21 08:13:51;;;;;;;3.60;3.08;;;;;;;17.83;61.39;100865.59;5039619;28;20029;-22
2022/06/21 08:16:20;;;;;;;3.53;2.75;;;;;;;17.97;61.55;100863.34;5027028;28;20039;-22
2022/06/21 08:19:12;;;;;;;6.15;2.97;;;;;;;18.13;61.54;100863.63;5027772;28;20359;-22
2022/06/21 08:21:44;;;;;;;4.95;3.13;;;;;;;18.25;60.38;100862.31;5043342;28;20028;-23
2022/06/21 08:24:18;;;;;;;4.55;3.10;;;;;;;18.31;60.29;100862.94;5038785;28;20116;-23
2022/06/21 08:26:51;;;;;;;5.32;2.80;;;;;;;18.44;59.88;100859.81;5028666;28;20070;-28
2022/06/21 08:29:28;;;;;;;3.95;2.78;;;;;;;18.57;60.69;100869.06;5039645;28;20508;-22
2022/06/21 08:32:31;;;;;;;3.55;2.83;;;;;;;18.71;60.28;100859.66;5024365;28;20047;-22
2022/06/21 08:35:05;;;;;;;4.68;3.00;;;;;;;18.94;60.25;100873.88;4993311;28;20444;-23
2022/06/21 08:37:35;;;;;;;5.32;3.38;;;;;;;19.09;60.14;100869.72;5020191;28;20431;-22
2022/06/21 08:40:18;;;;;;;3.58;2.85;;;;;;;19.18;59.02;100873.81;5032473;28;20025;-23
2022/06/21 08:42:49;;;;;;;4.82;2.90;;;;;;;19.25;58.58;100879.75;5036607;28;20068;-22
2022/06/21 08:48:43;;;;;;;3.90;2.80;;;;;;;19.45;58.90;100887.81;5042892;28;20045;-22
2022/06/21 08:51:36;;;;;;;4.57;3.22;;;;;;;19.64;57.84;100878.09;5035821;28;20047;-22
2022/06/21 08:54:30;;;;;;;6.38;3.72;;;;;;;19.77;56.33;100876.59;5037747;28;20048;-22
2022/06/21 08:57:00;;;;;;;4.05;2.90;;;;;;;19.88;57.83;100878.81;5062215;28;20052;-22
2022/06/21 08:59:55;;;;;;;3.87;2.97;;;;;;;19.97;57.96;100877.50;5043764;28;20230;-22
2022/06/21 09:02:24;;;;;;;2.97;2.67;;;;;;;20.03;56.75;100871.91;5065401;28;20029;-22
2022/06/21 09:05:27;;;;;;;5.80;3.10;;;;;;;20.21;55.47;100872.00;5030667;28;20125;-23
2022/06/21 09:08:16;;;;;;;3.25;2.95;;;;;;;20.25;55.97;100876.28;5063945;28;20039;-22
2022/06/21 09:10:54;;;;;;;3.42;3.00;;;;;;;20.30;55.75;100871.56;5060682;28;20031;-22
2022/06/21 09:13:46;;;;;;;6.53;3.03;;;;;;;20.43;55.97;100873.66;5064778;28;20040;-22
2022/06/21 09:16:19;;;;;;;3.33;3.03;;;;;;;20.47;55.11;100869.94;5047419;28;20052;-22
2022/06/21 09:18:56;;;;;;;3.45;2.83;;;;;;;20.49;55.93;100868.03;5045877;28;20077;-22
2022/06/21 09:21:27;;;;;;;2.67;2.45;;;;;;;20.59;55.67;100873.81;5061502;28;20386;-22
2022/06/21 09:23:58;;;;;;;5.10;2.75;;;;;;;20.69;56.24;100866.19;5043122;28;20025;-22
2022/06/21 09:26:42;;;;;;;3.00;2.70;;;;;;;20.75;55.88;100863.22;5059736;28;20040;-22
2022/06/21 09:29:18;;;;;;;4.65;2.65;;;;;;;20.80;52.70;100858.47;5057900;28;20021;-22
2022/06/21 09:32:10;;;;;;;4.10;2.45;;;;;;;20.93;53.33;100865.94;5027111;28;20031;-22
2022/06/21 09:34:42;;;;;;;3.30;3.00;;;;;;;20.96;53.98;100866.69;5058704;28;20485;-22
2022/06/21 09:37:36;;;;;;;3.22;2.92;;;;;;;21.08;52.59;100867.00;5037203;28;20512;-21
2022/06/21 09:40:09;;;;;;;4.55;2.80;;;;;;;21.15;52.81;100855.88;5051202;28;20143;-21
2022/06/21 09:42:34;;;;;;;5.25;2.67;;;;;;;21.22;53.43;100855.56;5044583;28;20021;-21
2022/06/21 09:45:23;;;;;;;3.75;3.00;;;;;;;21.30;53.33;100858.72;5060127;28;20070;-21
2022/06/21 09:48:13;;;;;;;3.47;2.60;;;;;;;21.44;53.02;100843.72;5058439;28;20021;-22
2022/06/21 09:50:38;;;;;;;3.88;2.70;;;;;;;21.51;53.34;100845.16;5060907;28;20067;-21
2022/06/21 09:53:17;;;;;;;2.63;2.43;;;;;;;21.60;52.69;100851.81;5059675;28;20074;-21
2022/06/21 09:55:53;;;;;;;4.63;2.67;;;;;;;21.66;53.44;100847.03;5038039;28;20025;-22
2022/06/21 09:58:32;;;;;;;2.75;2.47;;;;;;;21.70;53.65;100830.75;5045666;28;20533;-22
2022/06/21 10:01:00;;;;;;;2.60;2.50;;;;;;;21.73;53.87;100838.63;5044884;28;20028;-21
2022/06/21 10:04:24;;;;;;;3.58;2.40;;;;;;;21.80;54.28;100840.06;5045859;28;20601;-21
2022/06/21 10:07:03;;;;;;;2.65;2.45;;;;;;;21.86;54.64;100841.53;5003453;28;20109;-22
2022/06/21 10:09:50;;;;;;;4.95;2.53;;;;;;;22.01;55.00;100832.66;5034721;28;20583;-22
2022/06/21 10:12:22;;;;;;;4.75;2.63;;;;;;;22.19;54.32;100843.34;5064494;28;20017;-22
2022/06/21 10:15:06;;;;;;;3.22;2.60;;;;;;;22.30;50.97;100845.41;5043835;28;20028;-22
2022/06/21 10:17:50;;;;;;;2.97;2.78;;;;;;;22.38;52.46;100843.16;5063696;28;20028;-22
2022/06/21 10:20:37;;;;;;;2.28;1.98;;;;;;;22.42;53.46;100844.75;5061451;28;20032;-22
2022/06/21 10:23:28;;;;;;;3.22;2.45;;;;;;;22.40;53.53;100843.94;5063868;28;20021;-22
2022/06/21 10:26:22;;;;;;;2.38;2.15;;;;;;;22.43;53.35;100843.78;5046491;28;20020;-22
2022/06/21 10:29:14;;;;;;;4.95;2.55;;;;;;;22.51;52.76;100847.84;5063693;28;20059;-21
2022/06/21 10:32:02;;;;;;;2.47;2.00;;;;;;;22.62;52.33;100844.56;5062239;28;20039;-22
2022/06/21 10:34:27;;;;;;;2.38;2.17;;;;;;;22.71;52.57;100844.06;5042196;28;20029;-21
2022/06/21 10:37:14;;;;;;;2.40;2.20;;;;;;;22.76;52.79;100838.41;5059789;28;20024;-21
2022/06/21 10:39:45;;;;;;;2.60;2.40;;;;;;;22.87;51.40;100841.31;5061600;28;20467;-23
2022/06/21 10:42:47;;;;;;;3.50;2.25;;;;;;;22.94;51.59;100833.75;5061875;28;20456;-22
2022/06/21 10:45:15;;;;;;;4.53;2.05;;;;;;;23.11;52.93;100843.50;5060345;28;20043;-22
2022/06/21 10:48:18;;;;;;;2.17;2.08;;;;;;;23.23;51.67;100841.03;5062568;28;20321;-22
2022/06/21 10:51:11;;;;;;;2.40;2.05;;;;;;;23.31;50.87;100833.41;5060129;28;20577;-22
2022/06/21 10:53:48;;;;;;;2.75;2.45;;;;;;;23.40;51.92;100832.88;5061071;28;20029;-21
2022/06/21 10:59:25;;;;;;;2.03;1.93;;;;;;;23.56;51.15;100807.69;5062814;28;20036;-21
2022/06/21 11:01:59;;;;;;;1.88;1.73;;;;;;;23.66;49.53;100806.16;5064213;28;20511;-21
2022/06/21 11:04:38;;;;;;;3.35;2.05;;;;;;;23.75;50.24;100804.72;5031533;28;20024;-22
2022/06/21 11:07:21;;;;;;;2.33;2.00;;;;;;;23.83;49.82;100788.06;5019339;28;20031;-22
2022/06/21 11:10:14;;;;;;;3.00;2.00;;;;;;;23.90;49.53;100786.72;5062505;28;20081;-22
2022/06/21 11:12:52;;;;;;;2.22;1.80;;;;;;;23.98;49.63;100791.63;5058196;28;20039;-21
2022/06/21 11:15:39;;;;;;;1.80;1.70;;;;;;;23.98;48.63;100786.25;5044791;28;20099;-22
2022/06/21 11:18:21;;;;;;;2.00;1.80;;;;;;;24.04;48.24;100785.81;5064218;28;20396;-21
2022/06/21 11:20:59;;;;;;;2.67;2.17;;;;;;;24.20;48.25;100788.44;5045409;28;20070;-22
2022/06/21 11:23:33;;;;;;;3.90;2.13;;;;;;;24.30;48.61;100785.13;5047466;28;20392;-21
2022/06/21 11:26:08;;;;;;;3.17;1.83;;;;;;;24.26;47.05;100776.38;5045885;28;20052;-21
2022/06/21 11:28:36;;;;;;;1.90;1.77;;;;;;;24.41;48.38;100782.59;5066808;28;20012;-22
2022/06/21 11:31:21;;;;;;;1.83;1.73;;;;;;;24.50;47.24;100780.28;5059791;28;20108;-22
2022/06/21 11:33:55;;;;;;;3.20;1.95;;;;;;;24.56;47.58;100774.44;5060012;28;20028;-22
2022/06/21 11:36:45;;;;;;;2.90;2.00;;;;;;;24.60;47.38;100773.28;5046995;28;20028;-22
2022/06/21 11:39:16;;;;;;;2.75;2.03;;;;;;;24.60;45.90;100771.44;5043919;28;20032;-22
2022/06/21 11:42:15;;;;;;;2.42;2.00;;;;;;;24.70;46.24;100768.13;5063793;28;20032;-21
2022/06/21 11:45:03;;;;;;;2.38;1.92;;;;;;;24.73;46.81;100760.69;5064288;28;20029;-21
2022/06/21 11:47:46;;;;;;;1.42;1.42;;;;;;;24.83;45.79;100768.16;5068307;28;20104;-21
2022/06/21 11:50:17;;;;;;;1.92;1.77;;;;;;;24.91;46.64;100763.13;5066575;28;20032;-22
2022/06/21 11:53:16;;;;;;;2.13;1.92;;;;;;;25.00;47.29;100768.88;5040148;28;20037;-21
2022/06/21 11:56:09;;;;;;;2.30;1.80;;;;;;;25.07;46.85;100759.41;5058958;28;20043;-21
2022/06/21 11:58:42;;;;;;;1.92;1.73;;;;;;;25.07;45.14;100751.31;5041742;28;20476;-21
2022/06/21 12:01:15;;;;;;;1.90;1.70;;;;;;;25.15;44.64;100751.63;5061085;28;20395;-22
2022/06/21 12:03:58;;;;;;;1.92;1.83;;;;;;;25.22;44.83;100752.94;5043958;28;20016;-21
2022/06/21 12:06:53;;;;;;;2.60;1.60;;;;;;;25.32;44.66;100752.25;5046340;28;20025;-22
2022/06/21 12:09:32;;;;;;;2.53;1.85;;;;;;;25.38;44.55;100746.44;5056203;28;20063;-22
2022/06/21 12:12:05;;;;;;;1.70;1.60;;;;;;;25.41;44.43;100738.09;5062786;28;20044;-22
2022/06/21 12:15:03;;;;;;;2.80;1.90;;;;;;;25.53;45.07;100736.38;5064184;28;20083;-22
2022/06/21 12:17:46;;;;;;;1.80;1.55;;;;;;;25.66;44.99;100725.59;5058234;28;20215;-21
2022/06/21 12:20:17;;;;;;;1.95;1.83;;;;;;;25.75;44.46;100722.19;5047820;28;20021;-22
2022/06/21 12:22:45;;;;;;;2.15;1.25;;;;;;;25.78;44.13;100717.56;5059598;28;20017;-21
2022/06/21 12:25:12;;;;;;;1.35;1.30;;;;;;;25.75;43.74;100716.78;5060518;28;20016;-22
2022/06/21 12:27:37;;;;;;;2.05;1.33;;;;;;;25.75;43.18;100703.28;5040083;28;20176;-22
2022/06/21 12:30:36;;;;;;;2.17;1.67;;;;;;;25.80;43.46;100694.84;5030735;28;20476;-21